Time;durP1;ratioP1;P1;durP2;ratioP2;P2;SDS_P1;SDS_P2;PMS_P1;PMS_P2;Temp;Humidity;BMP_temperature;BMP_pressure;BME280_temperature;BME280_humidity;BME280_pressure;Samples;Min_cycle;Max_cycle;Signal;HPM_P1;HPM_P2
2023/11/10 00:00:01;;;;;;;24.50;2.85;;;;;;;;;;5073043;28;20031;-42
2023/11/10 00:02:28;;;;;;;21.38;2.88;;;;;;;;;;5070620;28;20037;-40
2023/11/10 00:04:55;;;;;;;33.88;2.85;;;;;;;;;;5067513;28;20032;-40
2023/11/10 00:07:22;;;;;;;22.95;2.97;;;;;;;;;;5064966;28;20091;-40
2023/11/10 00:09:49;;;;;;;24.20;2.85;;;;;;;;;;5061826;28;20529;-38
2023/11/10 00:12:17;;;;;;;21.55;2.35;;;;;;;;;;5074625;28;20122;-41
2023/11/10 00:14:49;;;;;;;30.98;3.42;;;;;;;;;;5073976;28;20123;-38
2023/11/10 00:17:17;;;;;;;20.15;3.05;;;;;;;;;;5074574;28;20032;-38
2023/11/10 00:19:44;;;;;;;20.50;2.60;;;;;;;;;;5055615;28;20402;-38
2023/11/10 00:22:11;;;;;;;26.70;2.75;;;;;;;;;;5066816;28;20732;-41
2023/11/10 00:24:39;;;;;;;27.10;3.40;;;;;;;;;;5060601;28;20112;-40
2023/11/10 00:27:10;;;;;;;27.92;3.05;;;;;;;;;;5067863;28;20116;-44
2023/11/10 00:29:42;;;;;;;28.50;3.25;;;;;;;;;;5071242;28;20112;-41
2023/11/10 00:32:10;;;;;;;17.98;2.97;;;;;;;;;;5055834;28;20028;-40
2023/11/10 00:34:37;;;;;;;20.40;3.03;;;;;;;;;;5069144;28;20036;-41
2023/11/10 00:37:05;;;;;;;23.70;3.20;;;;;;;;;;5070015;28;20107;-40
2023/11/10 00:39:32;;;;;;;27.73;3.28;;;;;;;;;;5073563;28;20409;-40
2023/11/10 00:41:59;;;;;;;24.52;2.85;;;;;;;;;;5055635;28;20629;-40
2023/11/10 00:44:29;;;;;;;19.50;2.97;;;;;;;;;;5073786;28;20036;-41
2023/11/10 00:46:56;;;;;;;23.75;3.35;;;;;;;;;;5069615;28;20025;-40
2023/11/10 00:49:23;;;;;;;20.15;3.10;;;;;;;;;;5063731;28;20085;-40
2023/11/10 00:51:50;;;;;;;15.15;2.80;;;;;;;;;;5070538;28;20490;-40
2023/11/10 00:54:17;;;;;;;19.20;3.53;;;;;;;;;;5072258;28;20470;-40
2023/11/10 00:56:45;;;;;;;16.67;2.70;;;;;;;;;;5073066;28;20032;-42
2023/11/10 00:59:12;;;;;;;26.00;3.30;;;;;;;;;;5064731;28;20040;-40
2023/11/10 01:01:39;;;;;;;29.15;3.50;;;;;;;;;;5067122;28;20036;-41
2023/11/10 01:04:06;;;;;;;29.25;3.65;;;;;;;;;;5070728;28;20533;-40
2023/11/10 01:06:33;;;;;;;26.23;3.78;;;;;;;;;;5070839;28;20032;-41
2023/11/10 01:09:00;;;;;;;27.52;4.00;;;;;;;;;;5064322;28;20436;-40
2023/11/10 01:11:27;;;;;;;21.17;4.18;;;;;;;;;;5041892;28;20395;-40
2023/11/10 01:13:55;;;;;;;34.38;4.75;;;;;;;;;;5065820;28;20135;-41
2023/11/10 01:16:22;;;;;;;26.42;4.80;;;;;;;;;;5061456;28;20029;-41
2023/11/10 01:18:50;;;;;;;34.00;6.95;;;;;;;;;;5057588;28;20163;-41
2023/11/10 01:21:18;;;;;;;29.77;8.60;;;;;;;;;;5056382;28;20119;-40
2023/11/10 01:23:45;;;;;;;52.50;12.70;;;;;;;;;;5042219;28;20040;-42
2023/11/10 01:26:13;;;;;;;57.10;13.95;;;;;;;;;;5060007;28;20025;-40
2023/11/10 01:28:40;;;;;;;44.85;14.45;;;;;;;;;;5071694;28;20040;-40
2023/11/10 01:31:08;;;;;;;63.67;20.00;;;;;;;;;;5050565;28;20031;-42
2023/11/10 01:33:36;;;;;;;86.65;24.48;;;;;;;;;;5062684;28;20024;-39
2023/11/10 01:36:03;;;;;;;109.30;26.58;;;;;;;;;;5067594;28;20060;-39
2023/11/10 01:38:30;;;;;;;98.70;28.33;;;;;;;;;;5064425;28;20403;-39
2023/11/10 01:40:57;;;;;;;114.35;30.20;;;;;;;;;;5067643;28;20111;-40
2023/11/10 01:43:24;;;;;;;100.38;31.95;;;;;;;;;;5063351;28;20040;-39
2023/11/10 01:45:51;;;;;;;105.10;31.95;;;;;;;;;;5072583;28;20062;-39
2023/11/10 01:48:19;;;;;;;103.22;30.88;;;;;;;;;;5071877;28;20016;-41
2023/11/10 01:50:46;;;;;;;112.05;32.03;;;;;;;;;;5072672;28;20040;-39
2023/11/10 01:53:14;;;;;;;96.55;28.27;;;;;;;;;;5072579;28;20433;-39
2023/11/10 01:55:47;;;;;;;97.45;27.83;;;;;;;;;;5072565;28;20056;-39
2023/11/10 01:58:14;;;;;;;91.97;28.13;;;;;;;;;;5066415;28;20607;-40
2023/11/10 02:00:41;;;;;;;83.22;25.65;;;;;;;;;;5053110;28;20036;-39
2023/11/10 02:03:08;;;;;;;86.18;26.42;;;;;;;;;;5059041;28;20442;-39
2023/11/10 02:05:35;;;;;;;87.10;25.17;;;;;;;;;;5067337;28;20060;-39
2023/11/10 02:08:03;;;;;;;84.45;26.27;;;;;;;;;;5065049;28;20025;-39
2023/11/10 02:10:30;;;;;;;70.68;23.17;;;;;;;;;;5061921;28;20078;-39
2023/11/10 02:12:57;;;;;;;74.43;22.58;;;;;;;;;;5060223;28;20372;-39
2023/11/10 02:15:25;;;;;;;64.40;21.05;;;;;;;;;;5062367;28;20036;-40
2023/11/10 02:17:52;;;;;;;64.03;20.58;;;;;;;;;;5072189;28;20486;-39
2023/11/10 02:20:19;;;;;;;61.50;19.50;;;;;;;;;;5072576;28;20082;-39
2023/11/10 02:22:50;;;;;;;64.28;20.08;;;;;;;;;;5071784;28;20127;-40
2023/11/10 02:25:20;;;;;;;52.80;18.35;;;;;;;;;;5060589;28;20028;-39
2023/11/10 02:27:49;;;;;;;53.05;18.00;;;;;;;;;;5054673;28;20033;-40
2023/11/10 02:30:16;;;;;;;56.03;17.02;;;;;;;;;;5054854;28;20037;-40
2023/11/10 02:32:44;;;;;;;47.72;13.55;;;;;;;;;;5054571;28;20036;-40
2023/11/10 02:35:11;;;;;;;43.58;12.70;;;;;;;;;;5054696;28;20041;-40
2023/11/10 02:37:38;;;;;;;37.65;12.85;;;;;;;;;;5059673;28;20478;-39
2023/11/10 02:40:06;;;;;;;39.33;13.60;;;;;;;;;;5062509;28;20048;-39
2023/11/10 02:42:36;;;;;;;51.13;14.45;;;;;;;;;;5060806;28;20383;-39
2023/11/10 02:45:04;;;;;;;39.13;13.02;;;;;;;;;;5062669;28;20024;-39
2023/11/10 02:47:31;;;;;;;43.50;13.13;;;;;;;;;;5061870;28;20078;-39
2023/11/10 02:49:58;;;;;;;39.80;13.23;;;;;;;;;;5060539;28;20124;-39
2023/11/10 02:52:26;;;;;;;34.28;11.15;;;;;;;;;;5062204;28;20116;-39
2023/11/10 02:54:52;;;;;;;33.40;11.57;;;;;;;;;;5061843;28;20029;-39
2023/11/10 02:57:21;;;;;;;32.13;11.52;;;;;;;;;;5060418;28;20065;-39
2023/11/10 02:59:49;;;;;;;34.00;11.15;;;;;;;;;;5061820;28;20115;-39
2023/11/10 03:02:16;;;;;;;30.77;10.18;;;;;;;;;;5054538;28;20437;-39
2023/11/10 03:04:43;;;;;;;32.50;9.57;;;;;;;;;;5051970;28;20024;-39
2023/11/10 03:07:10;;;;;;;29.20;9.63;;;;;;;;;;5051831;28;20569;-39
2023/11/10 03:09:39;;;;;;;28.20;8.80;;;;;;;;;;5051892;28;20041;-39
2023/11/10 03:12:08;;;;;;;26.50;8.63;;;;;;;;;;5051792;28;20483;-39
2023/11/10 03:14:36;;;;;;;27.00;7.97;;;;;;;;;;5051548;28;20064;-39
2023/11/10 03:17:03;;;;;;;20.05;7.30;;;;;;;;;;5051762;28;20040;-39
2023/11/10 03:19:30;;;;;;;22.73;7.30;;;;;;;;;;5051896;28;20129;-39
2023/11/10 03:21:57;;;;;;;20.67;6.47;;;;;;;;;;5051592;28;20024;-39
2023/11/10 03:24:24;;;;;;;20.10;6.85;;;;;;;;;;5051710;28;20116;-39
2023/11/10 03:26:51;;;;;;;21.35;6.82;;;;;;;;;;5051764;28;20025;-39
2023/11/10 03:29:18;;;;;;;18.08;6.03;;;;;;;;;;5051638;28;20025;-39
2023/11/10 03:31:45;;;;;;;16.65;5.70;;;;;;;;;;5050887;28;20037;-39
2023/11/10 03:34:12;;;;;;;17.05;5.63;;;;;;;;;;5051466;28;20029;-39
2023/11/10 03:36:39;;;;;;;22.35;5.90;;;;;;;;;;5051752;28;20028;-39
2023/11/10 03:39:06;;;;;;;19.67;5.88;;;;;;;;;;5051584;28;20028;-39
2023/11/10 03:41:33;;;;;;;15.38;5.10;;;;;;;;;;5051441;28;20431;-39
2023/11/10 03:44:00;;;;;;;18.83;5.30;;;;;;;;;;5051528;28;20029;-39
2023/11/10 03:46:27;;;;;;;17.10;5.50;;;;;;;;;;5051594;28;20056;-39
2023/11/10 03:48:54;;;;;;;15.25;3.58;;;;;;;;;;5051547;28;20027;-39
2023/11/10 03:51:21;;;;;;;16.33;4.18;;;;;;;;;;5051535;28;20025;-39
2023/11/10 03:53:47;;;;;;;13.05;3.88;;;;;;;;;;5051362;28;20383;-39
2023/11/10 03:56:14;;;;;;;11.40;3.30;;;;;;;;;;5051416;28;20033;-39
2023/11/10 03:58:42;;;;;;;18.52;3.55;;;;;;;;;;5051409;28;20021;-39
2023/11/10 04:01:13;;;;;;;16.48;4.57;;;;;;;;;;5051160;28;20035;-39
2023/11/10 04:03:41;;;;;;;13.35;3.33;;;;;;;;;;5051214;28;20083;-39
2023/11/10 04:06:08;;;;;;;14.38;3.22;;;;;;;;;;5051346;28;20025;-39
2023/11/10 04:08:35;;;;;;;12.48;3.55;;;;;;;;;;5051219;28;20131;-39
2023/11/10 04:11:02;;;;;;;11.43;2.90;;;;;;;;;;5051320;28;20502;-39
2023/11/10 04:13:29;;;;;;;10.40;2.50;;;;;;;;;;5050950;28;20072;-39
2023/11/10 04:15:56;;;;;;;12.20;2.55;;;;;;;;;;5051157;28;20025;-39
2023/11/10 04:18:27;;;;;;;11.98;2.20;;;;;;;;;;5051190;28;20379;-39
2023/11/10 04:20:55;;;;;;;10.75;2.67;;;;;;;;;;5051046;28;20502;-39
2023/11/10 04:23:22;;;;;;;9.10;1.83;;;;;;;;;;5050913;28;20123;-39
2023/11/10 04:25:49;;;;;;;10.07;2.72;;;;;;;;;;5051141;28;20104;-39
2023/11/10 04:28:16;;;;;;;8.90;2.50;;;;;;;;;;5051014;28;20159;-39
2023/11/10 04:30:44;;;;;;;7.43;1.88;;;;;;;;;;5051126;28;20100;-39
2023/11/10 04:33:11;;;;;;;14.10;2.42;;;;;;;;;;5050886;28;20048;-39
2023/11/10 04:35:37;;;;;;;12.82;2.00;;;;;;;;;;5051000;28;20387;-39
2023/11/10 04:38:04;;;;;;;8.23;2.28;;;;;;;;;;5050938;28;20502;-39
2023/11/10 04:40:32;;;;;;;7.15;1.85;;;;;;;;;;5050984;28;20037;-39
2023/11/10 04:42:59;;;;;;;10.02;1.98;;;;;;;;;;5053861;28;20045;-39
2023/11/10 04:45:26;;;;;;;6.35;1.60;;;;;;;;;;5054640;28;20556;-39
2023/11/10 04:47:53;;;;;;;14.15;2.13;;;;;;;;;;5054511;28;20033;-39
2023/11/10 04:50:20;;;;;;;5.47;1.70;;;;;;;;;;5054570;28;20033;-39
2023/11/10 04:52:53;;;;;;;7.43;1.70;;;;;;;;;;5054479;28;20033;-39
2023/11/10 04:55:20;;;;;;;9.15;1.75;;;;;;;;;;5054379;28;20037;-39
2023/11/10 04:57:47;;;;;;;13.65;1.73;;;;;;;;;;5054428;28;20087;-39
2023/11/10 05:00:14;;;;;;;7.47;1.50;;;;;;;;;;5054307;28;20037;-40
2023/11/10 05:02:43;;;;;;;9.43;1.63;;;;;;;;;;5054123;28;20132;-39
2023/11/10 05:05:12;;;;;;;14.55;2.08;;;;;;;;;;5054202;28;20111;-39
2023/11/10 05:07:40;;;;;;;14.77;2.55;;;;;;;;;;5054118;28;20037;-39
2023/11/10 05:10:08;;;;;;;10.30;1.67;;;;;;;;;;5054037;28;20040;-39
2023/11/10 05:12:36;;;;;;;10.18;1.55;;;;;;;;;;5054012;28;20483;-39
2023/11/10 05:15:07;;;;;;;9.02;1.42;;;;;;;;;;5053914;28;20045;-39
2023/11/10 05:17:35;;;;;;;17.13;1.87;;;;;;;;;;5054132;28;20654;-39
2023/11/10 05:20:03;;;;;;;20.60;2.08;;;;;;;;;;5053810;28;20037;-39
2023/11/10 05:22:32;;;;;;;14.48;1.52;;;;;;;;;;5053915;28;20025;-39
2023/11/10 05:25:02;;;;;;;12.85;1.60;;;;;;;;;;5053747;28;20479;-39
2023/11/10 05:27:29;;;;;;;13.32;1.50;;;;;;;;;;5053840;28;20071;-39
2023/11/10 05:29:56;;;;;;;13.05;1.80;;;;;;;;;;5053803;28;20028;-39
2023/11/10 05:32:23;;;;;;;12.45;1.50;;;;;;;;;;5053718;28;20028;-39
2023/11/10 05:34:50;;;;;;;17.45;1.77;;;;;;;;;;5053775;28;20115;-39
2023/11/10 05:37:18;;;;;;;10.68;1.50;;;;;;;;;;5053623;28;20029;-39
2023/11/10 05:39:46;;;;;;;8.40;1.55;;;;;;;;;;5053677;28;20025;-39
2023/11/10 05:42:13;;;;;;;15.48;1.63;;;;;;;;;;5053309;28;20102;-39
2023/11/10 05:44:40;;;;;;;22.95;1.90;;;;;;;;;;5053541;28;20036;-39
2023/11/10 05:47:08;;;;;;;15.80;1.73;;;;;;;;;;5053498;28;20037;-39
2023/11/10 05:49:35;;;;;;;16.90;1.60;;;;;;;;;;5053476;28;20094;-39
2023/11/10 05:52:02;;;;;;;20.38;1.92;;;;;;;;;;5053343;28;20039;-39
2023/11/10 05:54:29;;;;;;;13.95;1.38;;;;;;;;;;5052726;28;20021;-39
2023/11/10 05:56:56;;;;;;;9.85;1.52;;;;;;;;;;5053373;28;20032;-39
2023/11/10 05:59:27;;;;;;;11.98;1.40;;;;;;;;;;5035259;28;20708;-39
2023/11/10 06:01:57;;;;;;;13.48;1.40;;;;;;;;;;5062300;28;20031;-39
2023/11/10 06:04:24;;;;;;;12.02;1.60;;;;;;;;;;5073187;28;20029;-39
2023/11/10 06:06:51;;;;;;;12.85;1.65;;;;;;;;;;5073226;28;20398;-39
2023/11/10 06:09:22;;;;;;;12.00;1.58;;;;;;;;;;5072935;28;20390;-39
2023/11/10 06:11:50;;;;;;;13.40;1.70;;;;;;;;;;5073011;28;20025;-39
2023/11/10 06:14:17;;;;;;;9.38;1.30;;;;;;;;;;5072645;28;20098;-39
2023/11/10 06:16:45;;;;;;;17.63;1.60;;;;;;;;;;5072958;28;20505;-39
2023/11/10 06:19:12;;;;;;;14.13;1.60;;;;;;;;;;5072922;28;20035;-39
2023/11/10 06:21:39;;;;;;;12.30;1.35;;;;;;;;;;5072647;28;20078;-39
2023/11/10 06:24:06;;;;;;;10.02;1.50;;;;;;;;;;5072798;28;20505;-39
2023/11/10 06:26:33;;;;;;;9.57;1.35;;;;;;;;;;5072696;28;20024;-39
2023/11/10 06:29:02;;;;;;;8.52;1.30;;;;;;;;;;5072681;28;20023;-39
2023/11/10 06:31:29;;;;;;;11.30;1.55;;;;;;;;;;5072436;28;20059;-39
2023/11/10 06:33:56;;;;;;;10.52;1.35;;;;;;;;;;5072550;28;20032;-39
2023/11/10 06:36:23;;;;;;;16.80;1.60;;;;;;;;;;5072597;28;20394;-39
2023/11/10 06:38:50;;;;;;;10.05;1.63;;;;;;;;;;5072467;28;20028;-39
2023/11/10 06:41:18;;;;;;;8.20;1.40;;;;;;;;;;5072252;28;20085;-39
2023/11/10 06:43:45;;;;;;;9.90;1.63;;;;;;;;;;5072278;28;20119;-39
2023/11/10 06:46:20;;;;;;;9.30;1.38;;;;;;;;;;5072379;28;20074;-39
2023/11/10 06:48:47;;;;;;;11.00;1.50;;;;;;;;;;5072184;28;20039;-39
2023/11/10 06:51:15;;;;;;;9.73;1.40;;;;;;;;;;5071967;28;20074;-39
2023/11/10 06:53:42;;;;;;;7.05;1.50;;;;;;;;;;5071957;28;20043;-39
2023/11/10 06:56:09;;;;;;;12.68;1.67;;;;;;;;;;5072121;28;20017;-39
2023/11/10 06:58:37;;;;;;;6.50;1.40;;;;;;;;;;5071953;28;20478;-39
2023/11/10 07:01:06;;;;;;;12.48;1.63;;;;;;;;;;5071849;28;20474;-39
2023/11/10 07:03:33;;;;;;;8.85;1.27;;;;;;;;;;5218883;22;20140;-38
2023/11/10 07:06:02;;;;;;;9.50;1.67;;;;;;;;;;5049764;28;20095;-39
2023/11/10 07:08:29;;;;;;;9.70;1.65;;;;;;;;;;5051864;28;20029;-38
2023/11/10 07:11:00;;;;;;;9.85;1.75;;;;;;;;;;5051942;28;20029;-38
2023/11/10 07:13:28;;;;;;;9.73;1.57;;;;;;;;;;5051664;28;20082;-38
2023/11/10 07:15:55;;;;;;;7.53;1.83;;;;;;;;;;5051649;28;20256;-39
2023/11/10 07:18:24;;;;;;;8.63;1.30;;;;;;;;;;5051727;28;20053;-39
2023/11/10 07:20:52;;;;;;;8.18;1.63;;;;;;;;;;5051830;28;20021;-38
2023/11/10 07:23:19;;;;;;;14.23;1.80;;;;;;;;;;5051220;28;20032;-38
2023/11/10 07:25:46;;;;;;;14.48;1.77;;;;;;;;;;5051702;28;20487;-39
2023/11/10 07:28:14;;;;;;;14.43;1.92;;;;;;;;;;5051690;28;20017;-39
2023/11/10 07:30:42;;;;;;;9.80;1.80;;;;;;;;;;5034017;28;20029;-38
2023/11/10 07:33:09;;;;;;;8.88;1.73;;;;;;;;;;5051630;28;20363;-39
2023/11/10 07:35:36;;;;;;;10.48;1.75;;;;;;;;;;5051424;28;20402;-38
2023/11/10 07:38:03;;;;;;;7.10;1.60;;;;;;;;;;5033568;28;20086;-38
2023/11/10 07:40:30;;;;;;;11.93;1.80;;;;;;;;;;5033970;28;20025;-38
2023/11/10 07:42:57;;;;;;;8.57;1.63;;;;;;;;;;5051375;28;20028;-38
2023/11/10 07:45:24;;;;;;;10.85;1.55;;;;;;;;;;5051512;28;20097;-38
2023/11/10 07:47:52;;;;;;;10.00;1.80;;;;;;;;;;5051427;28;20032;-39
2023/11/10 07:50:20;;;;;;;7.75;1.92;;;;;;;;;;5051428;28;20148;-38
2023/11/10 07:52:47;;;;;;;9.43;1.95;;;;;;;;;;5051341;28;20031;-40
2023/11/10 07:55:15;;;;;;;5.13;1.45;;;;;;;;;;5051332;28;20094;-38
2023/11/10 07:57:42;;;;;;;8.27;1.38;;;;;;;;;;5051340;28;20467;-38
2023/11/10 08:00:13;;;;;;;8.82;1.38;;;;;;;;;;5051371;28;20017;-39
2023/11/10 08:02:41;;;;;;;6.43;1.30;;;;;;;;;;5051240;28;20470;-44
2023/11/10 08:05:08;;;;;;;9.00;1.30;;;;;;;;;;5051128;28;20051;-39
2023/11/10 08:07:35;;;;;;;5.95;1.33;;;;;;;;;;5051255;28;20029;-38
2023/11/10 08:10:04;;;;;;;6.22;1.27;;;;;;;;;;5051282;28;20029;-38
2023/11/10 08:12:32;;;;;;;11.60;1.30;;;;;;;;;;5051388;28;20375;-39
2023/11/10 08:15:00;;;;;;;6.35;1.20;;;;;;;;;;5033457;28;20580;-41
2023/11/10 08:17:28;;;;;;;6.82;1.17;;;;;;;;;;5053593;28;20438;-38
2023/11/10 08:19:55;;;;;;;7.05;1.60;;;;;;;;;;5055107;28;20087;-39
2023/11/10 08:22:22;;;;;;;7.93;1.05;;;;;;;;;;5055034;28;20475;-38
2023/11/10 08:24:50;;;;;;;6.10;1.08;;;;;;;;;;5054839;28;20037;-38
2023/11/10 08:27:17;;;;;;;5.45;1.20;;;;;;;;;;5055007;28;20246;-38
2023/11/10 08:29:44;;;;;;;8.55;1.20;;;;;;;;;;5055028;28;20479;-39
2023/11/10 08:32:11;;;;;;;9.73;1.23;;;;;;;;;;5054454;28;20041;-38
2023/11/10 08:34:38;;;;;;;5.40;1.15;;;;;;;;;;5054561;28;20406;-38
2023/11/10 08:37:04;;;;;;;10.75;1.38;;;;;;;;;;5054820;28;20028;-38
2023/11/10 08:39:31;;;;;;;7.78;1.00;;;;;;;;;;5054728;28;20090;-38
2023/11/10 08:41:59;;;;;;;9.48;1.20;;;;;;;;;;5054615;28;20029;-39
2023/11/10 08:44:26;;;;;;;11.27;1.40;;;;;;;;;;5054088;28;20078;-38
2023/11/10 08:46:53;;;;;;;11.40;1.27;;;;;;;;;;5054151;28;20052;-38
2023/11/10 08:49:20;;;;;;;10.35;1.20;;;;;;;;;;5054554;28;20486;-39
2023/11/10 08:51:49;;;;;;;7.50;1.40;;;;;;;;;;5054583;28;20044;-39
2023/11/10 08:54:18;;;;;;;10.25;1.23;;;;;;;;;;5054351;28;20037;-42
2023/11/10 08:56:45;;;;;;;10.35;1.50;;;;;;;;;;5054389;28;20038;-38
2023/11/10 08:59:12;;;;;;;12.63;1.65;;;;;;;;;;5054394;28;20063;-39
2023/11/10 09:01:39;;;;;;;9.52;1.20;;;;;;;;;;5054265;28;20087;-38
2023/11/10 09:04:06;;;;;;;10.30;1.40;;;;;;;;;;5054112;28;20041;-38
2023/11/10 09:06:33;;;;;;;12.00;1.50;;;;;;;;;;5054263;28;20025;-40
2023/11/10 09:09:01;;;;;;;7.60;1.27;;;;;;;;;;5034770;28;20064;-39
2023/11/10 09:11:28;;;;;;;8.10;1.17;;;;;;;;;;5034231;28;20037;-38
2023/11/10 09:13:54;;;;;;;10.55;1.35;;;;;;;;;;5034095;28;20032;-38
2023/11/10 09:16:21;;;;;;;9.45;1.50;;;;;;;;;;5034141;28;20835;-38
2023/11/10 09:18:48;;;;;;;14.02;1.50;;;;;;;;;;5034130;28;20051;-38
2023/11/10 09:21:15;;;;;;;8.38;1.35;;;;;;;;;;5034023;28;20036;-38
2023/11/10 09:23:44;;;;;;;11.73;1.60;;;;;;;;;;5033800;28;20022;-38
2023/11/10 09:26:12;;;;;;;8.00;1.48;;;;;;;;;;5033816;28;20030;-38
2023/11/10 09:28:39;;;;;;;11.23;1.35;;;;;;;;;;5032716;28;20542;-38
2023/11/10 09:31:06;;;;;;;8.90;1.30;;;;;;;;;;5033728;28;20121;-38
2023/11/10 09:33:33;;;;;;;16.52;1.90;;;;;;;;;;5033794;28;20521;-38
2023/11/10 09:36:00;;;;;;;5.30;2.00;;;;;;;;;;5033697;28;20040;-38
2023/11/10 09:38:27;;;;;;;4.85;1.20;;;;;;;;;;5033780;28;20065;-38
2023/11/10 09:40:54;;;;;;;7.90;1.20;;;;;;;;;;5033642;28;20491;-38
2023/11/10 09:43:24;;;;;;;8.32;1.40;;;;;;;;;;5033462;28;20493;-38
2023/11/10 09:45:54;;;;;;;8.68;1.35;;;;;;;;;;5033466;28;20035;-38
2023/11/10 09:48:22;;;;;;;12.70;1.50;;;;;;;;;;5033442;28;20094;-38
2023/11/10 09:50:50;;;;;;;7.75;1.55;;;;;;;;;;5016040;28;20120;-38
2023/11/10 09:53:17;;;;;;;11.85;1.50;;;;;;;;;;5033357;28;20025;-38
2023/11/10 09:55:46;;;;;;;8.73;1.20;;;;;;;;;;5015546;28;20025;-39
2023/11/10 09:58:14;;;;;;;6.65;1.27;;;;;;;;;;5033211;28;20030;-38
2023/11/10 10:00:43;;;;;;;6.22;1.08;;;;;;;;;;5033326;28;20032;-39
2023/11/10 10:03:12;;;;;;;5.15;1.35;;;;;;;;;;5032909;28;20073;-38
2023/11/10 10:05:40;;;;;;;10.98;1.50;;;;;;;;;;5046090;28;20060;-38
2023/11/10 10:08:07;;;;;;;7.05;1.30;;;;;;;;;;5052591;28;20685;-40
2023/11/10 10:10:35;;;;;;;7.70;1.15;;;;;;;;;;5032303;28;20029;-39
2023/11/10 10:13:02;;;;;;;3.80;1.00;;;;;;;;;;5052968;28;20037;-38
2023/11/10 10:15:31;;;;;;;7.55;1.35;;;;;;;;;;5052800;28;20033;-39
2023/11/10 10:18:05;;;;;;;8.73;1.50;;;;;;;;;;5052628;28;20032;-38
2023/11/10 10:20:32;;;;;;;10.60;1.38;;;;;;;;;;5052688;28;20518;-38
2023/11/10 10:22:59;;;;;;;7.50;1.38;;;;;;;;;;5052277;28;20048;-38
2023/11/10 10:25:26;;;;;;;11.63;1.10;;;;;;;;;;5049358;28;20487;-38
2023/11/10 10:27:53;;;;;;;6.00;1.67;;;;;;;;;;5052046;28;20513;-39
2023/11/10 10:30:21;;;;;;;8.90;1.40;;;;;;;;;;5051825;28;20037;-38
2023/11/10 10:32:49;;;;;;;7.43;1.35;;;;;;;;;;5048997;28;20029;-38
2023/11/10 10:35:16;;;;;;;9.40;1.20;;;;;;;;;;5049717;28;20490;-38
2023/11/10 10:37:43;;;;;;;10.35;1.63;;;;;;;;;;5051294;28;20040;-38
2023/11/10 10:40:13;;;;;;;12.40;1.65;;;;;;;;;;5050925;28;20509;-38
2023/11/10 10:42:44;;;;;;;11.20;1.67;;;;;;;;;;5050306;28;20070;-38
2023/11/10 10:45:12;;;;;;;7.72;1.30;;;;;;;;;;5050580;28;20420;-38
2023/11/10 10:47:40;;;;;;;13.98;1.80;;;;;;;;;;5050273;28;20114;-37
2023/11/10 10:50:08;;;;;;;11.65;1.80;;;;;;;;;;5051773;28;20063;-37
2023/11/10 10:52:35;;;;;;;16.20;1.55;;;;;;;;;;5051794;28;20024;-38
2023/11/10 10:55:05;;;;;;;14.60;1.80;;;;;;;;;;5052253;28;20103;-38
2023/11/10 10:57:37;;;;;;;11.52;1.70;;;;;;;;;;5052066;28;20510;-37
2023/11/10 11:00:09;;;;;;;;;;;;;;;;;;5052494;28;20394;-38
2023/11/10 11:02:38;;;;;;;14.43;1.90;;;;;;;;;;5051929;28;19917;-38
2023/11/10 11:05:18;;;;;;;13.02;1.90;;;;;;;;;;5051712;28;20055;-37
2023/11/10 11:08:00;;;;;;;14.02;1.70;;;;;;;;;;5050801;28;20036;-37
2023/11/10 11:10:37;;;;;;;21.50;2.15;;;;;;;;;;5034442;28;20025;-37
2023/11/10 11:13:17;;;;;;;14.73;1.95;;;;;;;;;;5050747;28;20045;-37
2023/11/10 11:16:04;;;;;;;19.23;2.38;;;;;;;;;;5051725;28;20483;-42
2023/11/10 11:18:48;;;;;;;77.85;6.18;;;;;;;;;;5028542;28;20060;-36
2023/11/10 11:21:19;;;;;;;34.60;2.90;;;;;;;;;;5049298;28;20025;-36
2023/11/10 11:23:54;;;;;;;80.65;6.38;;;;;;;;;;5049597;28;20052;-34
2023/11/10 11:26:24;;;;;;;53.97;4.07;;;;;;;;;;5049877;28;20556;-34
2023/11/10 11:29:00;;;;;;;185.55;14.80;;;;;;;;;;5048145;28;20540;-44
2023/11/10 11:31:27;;;;;;;291.80;23.90;;;;;;;;;;5049377;28;20090;-46
2023/11/10 11:33:55;;;;;;;164.98;14.38;;;;;;;;;;5049532;28;20497;-44
2023/11/10 11:36:22;;;;;;;212.40;12.32;;;;;;;;;;5050484;28;20029;-46
2023/11/10 11:38:51;;;;;;;141.30;10.57;;;;;;;;;;5050481;28;20021;-43
2023/11/10 11:41:22;;;;;;;88.88;7.40;;;;;;;;;;5050257;28;20033;-43
2023/11/10 11:43:49;;;;;;;78.57;6.13;;;;;;;;;;5045471;28;20069;-42
2023/11/10 11:46:17;;;;;;;373.42;35.90;;;;;;;;;;5044081;28;20585;-43
2023/11/10 11:48:44;;;;;;;47.80;5.07;;;;;;;;;;5042192;28;20056;-42
2023/11/10 11:51:12;;;;;;;52.67;3.75;;;;;;;;;;5037670;28;20024;-42
2023/11/10 11:53:39;;;;;;;39.00;4.20;;;;;;;;;;5046926;28;20033;-41
2023/11/10 11:56:07;;;;;;;37.45;3.30;;;;;;;;;;5048071;28;20036;-42
2023/11/10 11:58:35;;;;;;;22.05;2.95;;;;;;;;;;5046123;28;20552;-42
2023/11/10 12:01:03;;;;;;;154.77;13.98;;;;;;;;;;5055091;28;20490;-42
2023/11/10 12:03:30;;;;;;;43.17;5.25;;;;;;;;;;5054783;28;20093;-44
2023/11/10 12:05:57;;;;;;;41.97;4.57;;;;;;;;;;5046353;28;20483;-40
2023/11/10 12:08:24;;;;;;;45.90;5.22;;;;;;;;;;5044117;28;20144;-45
2023/11/10 12:10:51;;;;;;;78.43;7.65;;;;;;;;;;5043336;28;20372;-45
2023/11/10 12:13:19;;;;;;;42.58;3.97;;;;;;;;;;5044879;28;20025;-44
2023/11/10 12:15:46;;;;;;;39.67;3.55;;;;;;;;;;5042582;28;20032;-44
2023/11/10 12:18:17;;;;;;;25.83;3.10;;;;;;;;;;5051587;28;20402;-42
2023/11/10 12:20:44;;;;;;;26.08;3.45;;;;;;;;;;5051240;28;20037;-40
2023/11/10 12:23:15;;;;;;;24.33;2.30;;;;;;;;;;5039470;28;20393;-42
2023/11/10 12:25:43;;;;;;;22.83;2.30;;;;;;;;;;5034990;28;20113;-42
2023/11/10 12:28:13;;;;;;;24.48;2.53;;;;;;;;;;5035157;28;20032;-39
2023/11/10 12:30:40;;;;;;;15.30;2.05;;;;;;;;;;5043201;28;20033;-44
2023/11/10 12:33:09;;;;;;;31.63;3.38;;;;;;;;;;5052440;28;20041;-42
2023/11/10 12:35:39;;;;;;;31.98;3.10;;;;;;;;;;5054573;28;20417;-44
2023/11/10 12:38:07;;;;;;;35.95;3.20;;;;;;;;;;5048191;28;20179;-44
2023/11/10 12:40:37;;;;;;;20.55;2.40;;;;;;;;;;5051105;28;20507;-36
2023/11/10 12:43:04;;;;;;;26.85;2.92;;;;;;;;;;5036241;28;20553;-41
2023/11/10 12:45:31;;;;;;;13.15;2.05;;;;;;;;;;5041785;28;20033;-35
2023/11/10 12:47:59;;;;;;;14.90;1.45;;;;;;;;;;5019777;28;20156;-36
2023/11/10 12:50:30;;;;;;;17.30;2.03;;;;;;;;;;5045784;28;20040;-36
2023/11/10 12:52:57;;;;;;;22.67;2.58;;;;;;;;;;5053766;28;20044;-39
2023/11/10 12:55:24;;;;;;;29.95;3.17;;;;;;;;;;5049136;28;20059;-38
2023/11/10 12:57:52;;;;;;;29.13;2.88;;;;;;;;;;5040258;28;20402;-37
2023/11/10 13:00:19;;;;;;;24.05;2.58;;;;;;;;;;5034137;28;20037;-36
2023/11/10 13:02:49;;;;;;;14.77;2.22;;;;;;;;;;5033996;28;20038;-36
2023/11/10 13:05:19;;;;;;;39.75;3.13;;;;;;;;;;5033919;28;20042;-39
2023/11/10 13:07:46;;;;;;;27.90;2.60;;;;;;;;;;5034105;28;20033;-40
2023/11/10 13:10:13;;;;;;;15.45;2.30;;;;;;;;;;5034111;28;20031;-40
2023/11/10 13:12:40;;;;;;;31.50;2.80;;;;;;;;;;5036411;28;20026;-39
2023/11/10 13:15:08;;;;;;;18.95;2.30;;;;;;;;;;5036634;28;20483;-37
2023/11/10 13:17:36;;;;;;;21.80;3.00;;;;;;;;;;5039265;28;20026;-36
2023/11/10 13:20:06;;;;;;;27.60;2.63;;;;;;;;;;5046569;28;20040;-32
2023/11/10 13:22:33;;;;;;;21.73;2.40;;;;;;;;;;5053548;28;20565;-32
2023/11/10 13:25:00;;;;;;;17.55;2.40;;;;;;;;;;5053863;28;20047;-31
2023/11/10 13:27:27;;;;;;;16.85;1.85;;;;;;;;;;5053917;28;20056;-32
2023/11/10 13:29:54;;;;;;;17.25;2.05;;;;;;;;;;5053906;28;20021;-31
2023/11/10 13:32:22;;;;;;;9.75;1.80;;;;;;;;;;5053044;28;20037;-33
2023/11/10 13:34:50;;;;;;;17.30;1.83;;;;;;;;;;5053090;28;20036;-34
2023/11/10 13:37:17;;;;;;;14.10;2.03;;;;;;;;;;5050440;28;20049;-33
2023/11/10 13:39:44;;;;;;;14.40;2.00;;;;;;;;;;5053230;28;20112;-33
2023/11/10 13:42:12;;;;;;;16.52;1.92;;;;;;;;;;5034937;28;20036;-31
2023/11/10 13:44:39;;;;;;;12.13;1.95;;;;;;;;;;5050476;28;20033;-33
2023/11/10 13:47:07;;;;;;;20.27;1.40;;;;;;;;;;5052903;28;20033;-32
2023/11/10 13:49:36;;;;;;;11.18;1.60;;;;;;;;;;5052793;28;20032;-34
2023/11/10 13:52:03;;;;;;;11.93;1.70;;;;;;;;;;5052815;28;20032;-31
2023/11/10 13:54:30;;;;;;;21.08;1.92;;;;;;;;;;5052973;28;20048;-34
2023/11/10 13:56:59;;;;;;;14.00;1.67;;;;;;;;;;5053407;28;20029;-33
2023/11/10 13:59:26;;;;;;;17.80;2.13;;;;;;;;;;5053175;28;20044;-34
2023/11/10 14:01:53;;;;;;;24.92;2.90;;;;;;;;;;5053301;28;20116;-33
2023/11/10 14:04:22;;;;;;;28.77;3.28;;;;;;;;;;5052962;28;20061;-33
2023/11/10 14:06:50;;;;;;;32.53;3.03;;;;;;;;;;5053277;28;20088;-34
2023/11/10 14:09:18;;;;;;;20.48;2.45;;;;;;;;;;5052977;28;20482;-33
2023/11/10 14:11:45;;;;;;;11.23;2.25;;;;;;;;;;5052979;28;20060;-34
2023/11/10 14:14:12;;;;;;;16.38;1.90;;;;;;;;;;5052401;28;20044;-34
2023/11/10 14:16:39;;;;;;;10.63;1.95;;;;;;;;;;5052260;28;20029;-32
2023/11/10 14:19:06;;;;;;;7.63;1.88;;;;;;;;;;5052921;28;20021;-32
2023/11/10 14:21:34;;;;;;;11.23;1.75;;;;;;;;;;5052781;28;20028;-32
2023/11/10 14:24:01;;;;;;;10.13;1.52;;;;;;;;;;5052706;28;20078;-31
2023/11/10 14:26:28;;;;;;;6.93;1.75;;;;;;;;;;5052750;28;20494;-32
2023/11/10 14:28:56;;;;;;;8.75;1.77;;;;;;;;;;5052786;28;20476;-31
2023/11/10 14:31:23;;;;;;;13.55;2.10;;;;;;;;;;5034696;28;20033;-32
2023/11/10 14:33:54;;;;;;;11.77;1.80;;;;;;;;;;5052352;28;20482;-31